Time;durP1;ratioP1;P1;durP2;ratioP2;P2;SDS_P1;SDS_P2;PMS_P1;PMS_P2;Temp;Humidity;BMP_temperature;BMP_pressure;BME280_temperature;BME280_humidity;BME280_pressure;Samples;Min_cycle;Max_cycle;Signal;HPM_P1;HPM_P2
2024/04/03 00:03:05;;;;;;;;;;;10.00;99.90;;;;;;8390717;28;19920;-69
2024/04/03 00:07:06;;;;;;;;;;;10.00;99.90;;;;;;8386135;28;19920;-69
2024/04/03 00:11:07;;;;;;;;;;;10.10;99.90;;;;;;8375321;28;19979;-69
2024/04/03 00:15:08;;;;;;;;;;;10.00;99.90;;;;;;8383958;28;20401;-69
2024/04/03 00:19:09;;;;;;;;;;;10.10;99.90;;;;;;8386597;28;20005;-69
2024/04/03 00:23:10;;;;;;;;;;;10.10;99.90;;;;;;8388871;28;19928;-69
2024/04/03 00:27:11;;;;;;;;;;;10.10;99.90;;;;;;8381820;28;19928;-69
2024/04/03 00:31:12;;;;;;;;;;;10.10;99.90;;;;;;8389122;28;20014;-69
2024/04/03 00:35:12;;;;;;;;;;;10.10;99.90;;;;;;8388136;28;19920;-69
2024/04/03 00:39:13;;;;;;;;;;;10.00;99.90;;;;;;8391355;28;19974;-69
2024/04/03 00:43:14;;;;;;;;;;;10.10;99.90;;;;;;8387427;28;19967;-69
2024/04/03 00:47:15;;;;;;;;;;;10.10;99.90;;;;;;8383493;28;19920;-69
2024/04/03 00:51:16;;;;;;;;;;;10.10;99.90;;;;;;8391023;28;20489;-69
2024/04/03 00:55:17;;;;;;;;;;;10.10;99.90;;;;;;8389221;28;20264;-69
2024/04/03 00:59:18;;;;;;;;;;;10.10;99.90;;;;;;8388206;28;20438;-69
2024/04/03 01:03:19;;;;;;;;;;;10.10;99.90;;;;;;8391220;28;20015;-68
2024/04/03 01:07:20;;;;;;;;;;;10.10;99.90;;;;;;8386868;28;19959;-68
2024/04/03 01:11:21;;;;;;;;;;;10.20;99.90;;;;;;8410049;28;19920;-69
2024/04/03 01:15:22;;;;;;;;;;;10.20;99.90;;;;;;8406625;28;19942;-68
2024/04/03 01:19:23;;;;;;;;;;;10.20;99.90;;;;;;8403086;28;20450;-69
2024/04/03 01:23:23;;;;;;;;;;;10.20;99.90;;;;;;8390990;28;20260;-68
2024/04/03 01:27:24;;;;;;;;;;;10.20;99.90;;;;;;8399916;28;19966;-69
2024/04/03 01:36:29;;;;;;;;;;;10.20;99.90;;;;;;8412088;28;19961;-68
2024/04/03 01:40:29;;;;;;;;;;;10.30;99.90;;;;;;8383210;28;20628;-68
2024/04/03 01:44:30;;;;;;;;;;;10.30;99.90;;;;;;8434510;28;19924;-68
2024/04/03 01:48:31;;;;;;;;;;;10.30;99.90;;;;;;8415921;28;19971;-68
2024/04/03 01:52:32;;;;;;;;;;;10.30;99.90;;;;;;8414179;28;20007;-69
2024/04/03 01:56:33;;;;;;;;;;;10.30;99.90;;;;;;8415381;28;19924;-69
2024/04/03 02:00:34;;;;;;;;;;;10.30;99.90;;;;;;8411262;28;20425;-69
2024/04/03 02:04:34;;;;;;;;;;;10.30;99.90;;;;;;8413732;28;20371;-69
2024/04/03 02:08:35;;;;;;;;;;;10.30;99.90;;;;;;8412560;28;19927;-69
2024/04/03 02:12:36;;;;;;;;;;;10.30;99.90;;;;;;8418235;28;19959;-69
2024/04/03 02:16:37;;;;;;;;;;;10.30;99.90;;;;;;8396053;28;19963;-69
2024/04/03 02:20:37;;;;;;;;;;;10.30;99.90;;;;;;8395478;28;19924;-69
2024/04/03 02:24:38;;;;;;;;;;;10.30;99.90;;;;;;8411987;28;19920;-69
2024/04/03 02:28:39;;;;;;;;;;;10.30;99.90;;;;;;8410532;28;19978;-69
2024/04/03 02:32:39;;;;;;;;;;;10.30;99.90;;;;;;8403830;28;19927;-69
2024/04/03 02:36:40;;;;;;;;;;;10.30;99.90;;;;;;8412973;28;20022;-69
2024/04/03 02:40:41;;;;;;;;;;;10.40;99.90;;;;;;8385529;28;19932;-69
2024/04/03 02:44:41;;;;;;;;;;;10.30;99.90;;;;;;8408003;28;19950;-68
2024/04/03 02:48:42;;;;;;;;;;;10.30;99.90;;;;;;8411439;28;19919;-69
2024/04/03 02:52:43;;;;;;;;;;;10.30;99.90;;;;;;8410648;28;19966;-69
2024/04/03 02:56:44;;;;;;;;;;;10.30;99.90;;;;;;8413472;28;20060;-69
2024/04/03 03:00:44;;;;;;;;;;;10.30;99.90;;;;;;8410099;28;19966;-69
2024/04/03 03:04:45;;;;;;;;;;;10.30;99.90;;;;;;8411344;28;19920;-69
2024/04/03 03:08:48;;;;;;;;;;;10.30;99.90;;;;;;8397235;28;20419;-69
2024/04/03 03:12:49;;;;;;;;;;;10.30;99.90;;;;;;8406412;28;20026;-68
2024/04/03 03:16:50;;;;;;;;;;;10.30;99.90;;;;;;8411019;28;20363;-69
2024/04/03 03:20:51;;;;;;;;;;;10.30;99.90;;;;;;8409059;28;20014;-69
2024/04/03 03:24:52;;;;;;;;;;;10.30;99.90;;;;;;8426714;28;20005;-69
2024/04/03 03:28:53;;;;;;;;;;;10.30;99.90;;;;;;8409660;28;19920;-69
2024/04/03 03:32:53;;;;;;;;;;;10.30;99.90;;;;;;8409706;28;20275;-69
2024/04/03 03:36:55;;;;;;;;;;;10.30;99.90;;;;;;8410813;28;19966;-69
2024/04/03 03:40:56;;;;;;;;;;;10.30;99.90;;;;;;8403459;28;19999;-69
2024/04/03 03:44:57;;;;;;;;;;;10.30;99.90;;;;;;8406686;28;19991;-68
2024/04/03 03:53:17;;;;;;;;;;;10.30;99.90;;;;;;8409719;28;20007;-69
2024/04/03 03:57:18;;;;;;;;;;;10.30;99.90;;;;;;8411283;28;19967;-68
2024/04/03 04:01:19;;;;;;;;;;;10.30;99.90;;;;;;8410642;28;20558;-69
2024/04/03 04:05:20;;;;;;;;;;;10.30;99.90;;;;;;8410051;28;20325;-68
2024/04/03 04:09:20;;;;;;;;;;;10.30;99.90;;;;;;8426980;28;19990;-69
2024/04/03 04:13:21;;;;;;;;;;;10.20;99.90;;;;;;8406700;28;19985;-68
2024/04/03 04:17:22;;;;;;;;;;;10.20;99.90;;;;;;8411233;28;20030;-69
2024/04/03 04:21:32;;;;;;;;;;;10.20;99.90;;;;;;8408901;28;19970;-68
2024/04/03 04:25:33;;;;;;;;;;;10.30;99.90;;;;;;8402306;28;19926;-69
2024/04/03 04:29:37;;;;;;;;;;;10.30;99.90;;;;;;8384758;28;20011;-69
2024/04/03 04:33:38;;;;;;;;;;;10.30;99.90;;;;;;8404067;28;19930;-68
2024/04/03 04:37:57;;;;;;;;;;;10.30;99.90;;;;;;8409509;28;19998;-69
2024/04/03 04:41:58;;;;;;;;;;;10.30;99.90;;;;;;8396363;28;19932;-70
2024/04/03 04:46:03;;;;;;;;;;;10.20;99.90;;;;;;8399652;28;19965;-69
2024/04/03 04:50:04;;;;;;;;;;;10.20;99.90;;;;;;8384213;28;22513;-69
2024/04/03 04:54:05;;;;;;;;;;;10.20;99.90;;;;;;8411327;28;20016;-68
2024/04/03 04:58:06;;;;;;;;;;;10.20;99.90;;;;;;8410685;28;20019;-68
2024/04/03 05:02:07;;;;;;;;;;;10.20;99.90;;;;;;8385901;28;19928;-69
2024/04/03 05:06:14;;;;;;;;;;;10.20;99.90;;;;;;8384159;28;19920;-69
2024/04/03 05:10:14;;;;;;;;;;;10.20;99.90;;;;;;8392683;28;20012;-69
2024/04/03 05:14:15;;;;;;;;;;;10.20;99.90;;;;;;8387731;28;20058;-69
2024/04/03 05:18:16;;;;;;;;;;;10.20;99.90;;;;;;8391201;28;20010;-69
2024/04/03 05:22:18;;;;;;;;;;;10.10;99.90;;;;;;8391161;28;20061;-68
2024/04/03 05:26:18;;;;;;;;;;;10.10;99.90;;;;;;8388640;28;19920;-69
2024/04/03 05:30:20;;;;;;;;;;;10.10;99.90;;;;;;8390772;28;20332;-69
2024/04/03 05:34:21;;;;;;;;;;;10.10;99.90;;;;;;8373326;28;20011;-68
2024/04/03 05:38:22;;;;;;;;;;;10.10;99.90;;;;;;8389398;28;19920;-69
2024/04/03 05:42:23;;;;;;;;;;;10.10;99.90;;;;;;8371434;28;20030;-69
2024/04/03 05:46:24;;;;;;;;;;;10.10;99.90;;;;;;8375409;28;20493;-69
2024/04/03 05:50:29;;;;;;;;;;;10.20;99.90;;;;;;8389665;28;19920;-69
2024/04/03 05:54:30;;;;;;;;;;;10.20;99.90;;;;;;8380712;28;20337;-68
2024/04/03 05:58:31;;;;;;;;;;;10.20;99.90;;;;;;8366137;28;19971;-69
2024/04/03 06:02:38;;;;;;;;;;;10.20;99.90;;;;;;8390361;28;19983;-68
2024/04/03 06:06:39;;;;;;;;;;;10.20;99.90;;;;;;8384965;28;19920;-68
2024/04/03 06:10:40;;;;;;;;;;;10.10;99.90;;;;;;8386558;28;20398;-69
2024/04/03 06:14:40;;;;;;;;;;;10.20;99.90;;;;;;8374125;28;20272;-69
2024/04/03 06:18:41;;;;;;;;;;;10.20;99.90;;;;;;8386158;28;20007;-68
2024/04/03 06:22:42;;;;;;;;;;;10.20;99.90;;;;;;8390266;28;19928;-68
2024/04/03 06:26:43;;;;;;;;;;;10.20;99.90;;;;;;8372218;28;19927;-68
2024/04/03 06:30:44;;;;;;;;;;;10.20;99.90;;;;;;8373273;28;19921;-69
2024/04/03 06:34:44;;;;;;;;;;;10.30;99.90;;;;;;8377891;28;19926;-69
2024/04/03 06:38:45;;;;;;;;;;;10.30;99.90;;;;;;8394578;28;19926;-69
2024/04/03 06:42:46;;;;;;;;;;;10.30;99.90;;;;;;8379056;28;20011;-69
2024/04/03 06:46:47;;;;;;;;;;;10.30;99.90;;;;;;8380454;28;20011;-68
2024/04/03 06:50:52;;;;;;;;;;;10.30;99.90;;;;;;8395272;28;19931;-69
2024/04/03 06:54:54;;;;;;;;;;;10.30;99.90;;;;;;8379035;28;20366;-68
2024/04/03 06:58:55;;;;;;;;;;;10.30;99.90;;;;;;8393379;28;20003;-69
2024/04/03 07:02:56;;;;;;;;;;;10.40;99.90;;;;;;8397116;28;20019;-68
2024/04/03 07:06:58;;;;;;;;;;;10.40;99.90;;;;;;8394953;28;19928;-69
2024/04/03 07:11:00;;;;;;;;;;;10.40;99.90;;;;;;8389127;28;20399;-68
2024/04/03 07:15:19;;;;;;;;;;;10.50;99.90;;;;;;8366165;28;20018;-69
2024/04/03 07:19:20;;;;;;;;;;;10.60;99.90;;;;;;8393184;28;20007;-68
2024/04/03 07:23:25;;;;;;;;;;;10.60;99.90;;;;;;8373917;28;19920;-69
2024/04/03 07:27:27;;;;;;;;;;;10.70;99.90;;;;;;8377710;28;20003;-69
2024/04/03 07:31:27;;;;;;;;;;;10.70;99.90;;;;;;8389796;28;21070;-69
2024/04/03 07:35:29;;;;;;;;;;;10.70;99.90;;;;;;8368990;28;20368;-69
2024/04/03 07:39:30;;;;;;;;;;;10.70;99.90;;;;;;8375236;28;20466;-69
2024/04/03 07:43:30;;;;;;;;;;;10.70;99.90;;;;;;8355233;28;20300;-68
2024/04/03 07:47:32;;;;;;;;;;;10.80;99.90;;;;;;8376442;28;19976;-68
2024/04/03 07:51:33;;;;;;;;;;;10.80;99.90;;;;;;8376437;28;20003;-69
2024/04/03 07:55:39;;;;;;;;;;;10.80;99.90;;;;;;8376969;28;19928;-69
2024/04/03 07:59:41;;;;;;;;;;;10.80;99.90;;;;;;8375282;28;20003;-69
2024/04/03 08:03:43;;;;;;;;;;;10.80;99.90;;;;;;8374401;28;20389;-69
2024/04/03 08:07:43;;;;;;;;;;;10.90;99.90;;;;;;8424151;28;20327;-68
2024/04/03 08:11:44;;;;;;;;;;;10.90;99.90;;;;;;8406220;28;19920;-69
2024/04/03 08:15:45;;;;;;;;;;;10.80;99.90;;;;;;8412509;28;19926;-69
2024/04/03 08:19:49;;;;;;;;;;;10.80;99.90;;;;;;8430839;28;19920;-69
2024/04/03 08:23:50;;;;;;;;;;;10.70;99.90;;;;;;8406340;28;19924;-69
2024/04/03 08:27:53;;;;;;;;;;;10.70;99.90;;;;;;8410425;28;19926;-69
2024/04/03 08:31:53;;;;;;;;;;;10.70;99.90;;;;;;8390768;28;20026;-69
2024/04/03 08:36:01;;;;;;;;;;;10.70;99.90;;;;;;8410909;28;19973;-69
2024/04/03 08:40:02;;;;;;;;;;;10.70;99.90;;;;;;8410923;28;20010;-69
2024/04/03 08:44:02;;;;;;;;;;;10.70;99.90;;;;;;8370959;28;19947;-69
2024/04/03 08:48:04;;;;;;;;;;;10.70;99.90;;;;;;8408473;28;20287;-69
2024/04/03 08:52:05;;;;;;;;;;;10.70;99.90;;;;;;8409806;28;20006;-69
2024/04/03 08:56:06;;;;;;;;;;;10.70;99.90;;;;;;8409951;28;20007;-69
2024/04/03 09:00:08;;;;;;;;;;;10.70;99.90;;;;;;8408017;28;19920;-69
2024/04/03 09:04:09;;;;;;;;;;;10.80;99.90;;;;;;8391881;28;19924;-70
2024/04/03 09:08:10;;;;;;;;;;;10.90;99.90;;;;;;8408848;28;19969;-69
2024/04/03 09:12:11;;;;;;;;;;;11.00;99.90;;;;;;8381602;28;20363;-69
2024/04/03 09:16:12;;;;;;;;;;;11.00;99.90;;;;;;8425975;28;20011;-69
2024/04/03 09:20:22;;;;;;;;;;;11.00;99.90;;;;;;8406268;28;19932;-69
2024/04/03 09:24:24;;;;;;;;;;;11.00;99.90;;;;;;8408602;28;20010;-69
2024/04/03 09:28:25;;;;;;;;;;;11.00;99.90;;;;;;8407958;28;20312;-69
2024/04/03 09:32:26;;;;;;;;;;;11.10;99.90;;;;;;8391871;28;19999;-69
2024/04/03 09:36:27;;;;;;;;;;;11.10;99.90;;;;;;8391990;28;20015;-69
2024/04/03 09:40:29;;;;;;;;;;;11.20;99.90;;;;;;8402283;28;19920;-69
2024/04/03 09:44:36;;;;;;;;;;;11.20;99.90;;;;;;8383574;28;20300;-68
2024/04/03 09:48:38;;;;;;;;;;;11.20;99.90;;;;;;8391525;28;20022;-69
2024/04/03 09:52:40;;;;;;;;;;;11.30;99.90;;;;;;8403107;28;20003;-70
2024/04/03 09:56:41;;;;;;;;;;;11.20;99.90;;;;;;8405295;28;20023;-68
2024/04/03 10:00:50;;;;;;;;;;;11.10;99.90;;;;;;8392931;28;19995;-69
2024/04/03 10:04:56;;;;;;;;;;;11.20;99.90;;;;;;8406138;28;19926;-69
2024/04/03 10:08:58;;;;;;;;;;;11.30;99.90;;;;;;8411312;28;19995;-69
2024/04/03 10:13:00;;;;;;;;;;;11.40;99.90;;;;;;8398825;28;20002;-69
2024/04/03 10:17:01;;;;;;;;;;;11.50;99.90;;;;;;8408618;28;20015;-69
2024/04/03 10:21:02;;;;;;;;;;;11.60;99.90;;;;;;8412612;28;19920;-68
2024/04/03 10:25:05;;;;;;;;;;;11.70;99.90;;;;;;8413777;28;20035;-69
2024/04/03 10:29:06;;;;;;;;;;;11.80;99.90;;;;;;8414260;28;20019;-69
2024/04/03 10:33:08;;;;;;;;;;;11.80;99.90;;;;;;8394163;28;19926;-69
2024/04/03 10:42:12;;;;;;;;;;;11.90;99.90;;;;;;8421097;28;20324;-69
2024/04/03 10:46:22;;;;;;;;;;;12.00;99.90;;;;;;8391105;28;20010;-69
2024/04/03 10:50:22;;;;;;;;;;;12.00;99.90;;;;;;8413892;28;20061;-69
2024/04/03 10:54:25;;;;;;;;;;;12.00;99.90;;;;;;8409391;28;19920;-69
2024/04/03 10:58:27;;;;;;;;;;;12.10;99.90;;;;;;8395335;28;20450;-69
2024/04/03 11:02:28;;;;;;;;;;;12.10;99.90;;;;;;8445464;28;20100;-69
2024/04/03 11:06:29;;;;;;;;;;;12.20;99.90;;;;;;8378016;28;19994;-69
2024/04/03 11:10:30;;;;;;;;;;;12.30;99.90;;;;;;8395877;28;20390;-69
2024/04/03 11:14:31;;;;;;;;;;;12.40;99.90;;;;;;8376674;28;20003;-69
2024/04/03 11:18:31;;;;;;;;;;;12.50;99.90;;;;;;8395960;28;19931;-69
2024/04/03 11:22:32;;;;;;;;;;;12.50;99.90;;;;;;8393472;28;20097;-69
2024/04/03 11:26:33;;;;;;;;;;;12.50;99.90;;;;;;8384098;28;19962;-69
2024/04/03 11:30:37;;;;;;;;;;;12.40;99.90;;;;;;8369887;28;19982;-69
2024/04/03 11:34:38;;;;;;;;;;;12.30;99.90;;;;;;8387112;28;20391;-69
2024/04/03 11:38:39;;;;;;;;;;;12.20;99.90;;;;;;8389174;28;19943;-69
2024/04/03 11:42:40;;;;;;;;;;;12.20;99.90;;;;;;8385118;28;19921;-69
2024/04/03 11:46:41;;;;;;;;;;;12.20;99.90;;;;;;8373422;28;19920;-68
2024/04/03 11:50:42;;;;;;;;;;;12.20;99.90;;;;;;8376338;28;20015;-69
2024/04/03 11:54:43;;;;;;;;;;;12.30;99.90;;;;;;8394285;28;20083;-69
2024/04/03 11:58:47;;;;;;;;;;;12.30;99.90;;;;;;8389563;28;19928;-69
2024/04/03 12:02:48;;;;;;;;;;;12.20;99.90;;;;;;8392111;28;19991;-69
2024/04/03 12:06:49;;;;;;;;;;;12.20;99.90;;;;;;8394294;28;19939;-69
2024/04/03 12:10:50;;;;;;;;;;;12.10;99.90;;;;;;8391653;28;19927;-69
2024/04/03 12:14:51;;;;;;;;;;;12.10;99.90;;;;;;8395348;28;19920;-69
2024/04/03 12:19:12;;;;;;;;;;;12.10;99.90;;;;;;8378158;28;19966;-69
2024/04/03 12:23:12;;;;;;;;;;;12.10;99.90;;;;;;8392057;28;20006;-68
2024/04/03 12:27:13;;;;;;;;;;;12.10;99.90;;;;;;8393872;28;19978;-69
2024/04/03 12:31:14;;;;;;;;;;;12.10;99.90;;;;;;8368029;28;19927;-69
2024/04/03 12:35:16;;;;;;;;;;;12.20;99.90;;;;;;8377880;28;19921;-69
2024/04/03 12:39:17;;;;;;;;;;;12.20;99.90;;;;;;8392913;28;20431;-69
2024/04/03 12:43:18;;;;;;;;;;;12.20;99.90;;;;;;8388432;28;20272;-69
2024/04/03 12:47:19;;;;;;;;;;;12.30;99.90;;;;;;8393923;28;19920;-69
2024/04/03 12:51:19;;;;;;;;;;;12.40;99.90;;;;;;8391906;28;19967;-69
2024/04/03 12:55:20;;;;;;;;;;;12.40;99.90;;;;;;8391837;28;19974;-69
2024/04/03 12:59:22;;;;;;;;;;;12.50;99.90;;;;;;8392781;28;20349;-69
2024/04/03 13:03:23;;;;;;;;;;;12.40;99.90;;;;;;8375767;28;19926;-69
2024/04/03 13:07:24;;;;;;;;;;;12.40;99.90;;;;;;8408955;28;20049;-69
2024/04/03 13:11:25;;;;;;;;;;;12.40;99.90;;;;;;8405586;28;19920;-69
2024/04/03 13:15:26;;;;;;;;;;;12.60;99.90;;;;;;8387087;28;20011;-69
2024/04/03 13:19:27;;;;;;;;;;;12.70;99.90;;;;;;8397923;28;20003;-69
2024/04/03 13:23:28;;;;;;;;;;;12.80;99.90;;;;;;8433341;28;19920;-69
2024/04/03 13:27:29;;;;;;;;;;;13.10;99.90;;;;;;8405754;28;20019;-69
2024/04/03 13:31:30;;;;;;;;;;;13.40;99.90;;;;;;8412036;28;19920;-69
2024/04/03 13:35:31;;;;;;;;;;;13.60;99.90;;;;;;8405048;28;20308;-69
2024/04/03 13:39:32;;;;;;;;;;;14.00;99.90;;;;;;8403627;28;20249;-69
2024/04/03 13:43:32;;;;;;;;;;;14.20;99.90;;;;;;8365647;28;19925;-69
2024/04/03 13:47:33;;;;;;;;;;;14.20;99.90;;;;;;8416266;28;19931;-69
2024/04/03 13:51:34;;;;;;;;;;;14.10;99.90;;;;;;8411930;28;19943;-69
2024/04/03 13:55:35;;;;;;;;;;;14.30;99.90;;;;;;8414527;28;19920;-70
2024/04/03 13:59:36;;;;;;;;;;;14.50;99.90;;;;;;8412929;28;19927;-69
2024/04/03 14:03:37;;;;;;;;;;;14.90;99.90;;;;;;8398622;28;19927;-69
2024/04/03 14:07:38;;;;;;;;;;;15.20;99.90;;;;;;8414342;28;20014;-70
2024/04/03 14:11:38;;;;;;;;;;;15.20;99.90;;;;;;8411453;28;19920;-70
2024/04/03 14:15:39;;;;;;;;;;;15.10;99.90;;;;;;8414573;28;19920;-69
2024/04/03 14:19:40;;;;;;;;;;;14.90;99.90;;;;;;8410655;28;20375;-68
2024/04/03 14:23:41;;;;;;;;;;;14.80;99.90;;;;;;8421419;28;20395;-69
2024/04/03 14:27:41;;;;;;;;;;;14.80;99.90;;;;;;8424452;28;19931;-69
2024/04/03 14:31:43;;;;;;;;;;;14.90;99.90;;;;;;8414378;28;20271;-69
2024/04/03 14:35:44;;;;;;;;;;;15.00;99.90;;;;;;8412709;28;20650;-69
2024/04/03 14:39:44;;;;;;;;;;;15.00;99.90;;;;;;8382440;28;19923;-69
2024/04/03 14:43:46;;;;;;;;;;;14.90;99.90;;;;;;8391938;28;20341;-69
2024/04/03 14:47:46;;;;;;;;;;;14.80;99.90;;;;;;8382257;28;20026;-69
2024/04/03 14:51:48;;;;;;;;;;;14.70;99.90;;;;;;8420088;28;19928;-69
2024/04/03 14:55:49;;;;;;;;;;;14.50;99.90;;;;;;8402241;28;19920;-69
2024/04/03 14:59:50;;;;;;;;;;;14.30;99.90;;;;;;8394457;28;19920;-69
2024/04/03 15:03:51;;;;;;;;;;;14.00;99.90;;;;;;8399166;28;20364;-70
2024/04/03 15:07:52;;;;;;;;;;;13.70;99.90;;;;;;8386317;28;19924;-69
2024/04/03 15:11:52;;;;;;;;;;;13.40;99.90;;;;;;8395933;28;20279;-69
2024/04/03 15:15:53;;;;;;;;;;;13.30;99.90;;;;;;8394107;28;19920;-70
2024/04/03 15:19:54;;;;;;;;;;;13.50;99.90;;;;;;8410688;28;20335;-69
2024/04/03 15:23:55;;;;;;;;;;;13.70;99.90;;;;;;8413010;28;19920;-70
2024/04/03 15:27:56;;;;;;;;;;;13.80;99.90;;;;;;8440501;28;20015;-69
2024/04/03 15:31:57;;;;;;;;;;;13.90;99.90;;;;;;8394600;28;19974;-70
2024/04/03 15:35:57;;;;;;;;;;;14.10;99.90;;;;;;8405410;28;19946;-69
2024/04/03 15:40:00;;;;;;;;;;;14.40;99.90;;;;;;8389436;28;19920;-71
2024/04/03 15:44:00;;;;;;;;;;;14.60;99.90;;;;;;8393248;28;19965;-72
2024/04/03 15:48:01;;;;;;;;;;;14.30;99.90;;;;;;8408738;28;20414;-72
2024/04/03 15:52:02;;;;;;;;;;;14.10;99.90;;;;;;8411519;28;20325;-70
2024/04/03 15:56:03;;;;;;;;;;;14.00;99.90;;;;;;8413436;28;20015;-69
2024/04/03 16:00:05;;;;;;;;;;;14.00;99.90;;;;;;8402085;28;20398;-69
2024/04/03 16:04:07;;;;;;;;;;;14.30;99.90;;;;;;8442021;28;20400;-69
2024/04/03 16:08:07;;;;;;;;;;;15.10;99.90;;;;;;8402320;28;20374;-69
2024/04/03 16:12:10;;;;;;;;;;;15.90;99.90;;;;;;8364155;28;20286;-69
2024/04/03 16:16:11;;;;;;;;;;;16.30;99.90;;;;;;8401237;28;20426;-69
2024/04/03 16:25:16;;;;;;;;;;;17.20;99.90;;;;;;8427262;28;20003;-70
2024/04/03 16:29:17;;;;;;;;;;;17.60;99.90;;;;;;8389821;28;19955;-69
2024/04/03 16:33:18;;;;;;;;;;;17.20;99.90;;;;;;8407292;28;19926;-70
2024/04/03 16:37:19;;;;;;;;;;;16.50;99.90;;;;;;8409063;28;20003;-69
2024/04/03 16:41:19;;;;;;;;;;;15.80;99.90;;;;;;8370416;28;20390;-69
2024/04/03 16:45:20;;;;;;;;;;;15.30;99.90;;;;;;8375728;28;19924;-69
2024/04/03 16:54:18;;;;;;;;;;;14.60;99.90;;;;;;8395031;28;19930;-69
2024/04/03 16:58:20;;;;;;;;;;;14.30;99.90;;;;;;8389046;28;20047;-69
2024/04/03 17:02:21;;;;;;;;;;;14.10;99.90;;;;;;8358270;28;19924;-69
2024/04/03 17:06:21;;;;;;;;;;;13.90;99.90;;;;;;8374673;28;19927;-69
2024/04/03 17:10:23;;;;;;;;;;;13.80;99.90;;;;;;8358136;28;20024;-69
2024/04/03 17:14:24;;;;;;;;;;;13.70;99.90;;;;;;8367788;28;19965;-70
2024/04/03 17:18:24;;;;;;;;;;;13.50;99.90;;;;;;8376065;28;19920;-70
2024/04/03 17:22:25;;;;;;;;;;;13.40;99.90;;;;;;8364431;28;19928;-69
2024/04/03 17:26:26;;;;;;;;;;;13.40;99.90;;;;;;8365022;28;19977;-69
2024/04/03 17:30:27;;;;;;;;;;;13.30;99.90;;;;;;8387213;28;19920;-69
2024/04/03 17:34:30;;;;;;;;;;;13.30;99.90;;;;;;8367489;28;19928;-69
2024/04/03 17:38:31;;;;;;;;;;;13.30;99.90;;;;;;8367512;28;19926;-70
2024/04/03 17:42:33;;;;;;;;;;;13.20;99.90;;;;;;8386050;28;19920;-69
2024/04/03 17:46:34;;;;;;;;;;;13.20;99.90;;;;;;8384774;28;19924;-69
2024/04/03 17:50:35;;;;;;;;;;;13.10;99.90;;;;;;8370117;28;19924;-69
2024/04/03 17:54:36;;;;;;;;;;;13.00;99.90;;;;;;8355613;28;19964;-70
2024/04/03 17:58:36;;;;;;;;;;;12.90;99.90;;;;;;8350704;28;19920;-69
2024/04/03 18:02:39;;;;;;;;;;;12.90;99.90;;;;;;8368574;28;19927;-69
2024/04/03 18:06:39;;;;;;;;;;;12.80;99.90;;;;;;8365705;28;19929;-70
2024/04/03 18:10:41;;;;;;;;;;;12.80;99.90;;;;;;8354301;28;19930;-69
2024/04/03 18:14:41;;;;;;;;;;;12.70;99.90;;;;;;8367872;28;19925;-69
2024/04/03 18:18:42;;;;;;;;;;;12.70;99.90;;;;;;8353034;28;20019;-69
2024/04/03 18:22:43;;;;;;;;;;;12.60;99.90;;;;;;8384867;28;19975;-69
2024/04/03 18:26:45;;;;;;;;;;;12.50;99.90;;;;;;8357229;28;19940;-69
2024/04/03 18:30:53;;;;;;;;;;;12.50;99.90;;;;;;8389861;28;19943;-70
2024/04/03 18:34:54;;;;;;;;;;;12.40;99.90;;;;;;8356389;28;20368;-69
2024/04/03 18:38:56;;;;;;;;;;;12.40;99.90;;;;;;8366951;28;19921;-70
2024/04/03 18:42:57;;;;;;;;;;;12.40;99.90;;;;;;8351865;28;19925;-69
2024/04/03 18:46:59;;;;;;;;;;;12.30;99.90;;;;;;8355011;28;19989;-69
2024/04/03 18:50:59;;;;;;;;;;;12.30;99.90;;;;;;8360944;28;19974;-69
2024/04/03 18:55:02;;;;;;;;;;;12.30;99.90;;;;;;8387841;28;19972;-69
2024/04/03 18:59:04;;;;;;;;;;;12.20;99.90;;;;;;8369615;28;19921;-69
2024/04/03 19:03:08;;;;;;;;;;;12.20;99.90;;;;;;8357871;28;19921;-69
2024/04/03 19:07:09;;;;;;;;;;;12.20;99.90;;;;;;8369540;28;19927;-69
2024/04/03 19:11:10;;;;;;;;;;;12.20;99.90;;;;;;8356942;28;19924;-69
2024/04/03 19:15:11;;;;;;;;;;;12.20;99.90;;;;;;8358670;28;19959;-69
2024/04/03 19:19:12;;;;;;;;;;;12.20;99.90;;;;;;8389659;28;20314;-69
2024/04/03 19:23:13;;;;;;;;;;;12.10;99.90;;;;;;8374744;28;19920;-69
2024/04/03 19:27:14;;;;;;;;;;;12.10;99.90;;;;;;8339405;28;19925;-69
2024/04/03 19:31:14;;;;;;;;;;;12.10;99.90;;;;;;8367497;28;20287;-69
2024/04/03 19:35:15;;;;;;;;;;;12.10;99.90;;;;;;8353576;28;20379;-70
2024/04/03 19:39:16;;;;;;;;;;;12.10;99.90;;;;;;8384405;28;19974;-69
2024/04/03 19:43:19;;;;;;;;;;;12.10;99.90;;;;;;8386803;28;19924;-69
2024/04/03 19:47:19;;;;;;;;;;;12.10;99.90;;;;;;8369370;28;19925;-69
2024/04/03 19:51:21;;;;;;;;;;;12.10;99.90;;;;;;8385153;28;19927;-69
2024/04/03 19:55:21;;;;;;;;;;;12.00;99.90;;;;;;8367236;28;19958;-69
2024/04/03 19:59:22;;;;;;;;;;;12.00;99.90;;;;;;8337483;28;19932;-69
2024/04/03 20:03:23;;;;;;;;;;;12.00;99.90;;;;;;8370094;28;20067;-69
2024/04/03 20:07:23;;;;;;;;;;;12.00;99.90;;;;;;8371574;28;19964;-69
2024/04/03 20:11:24;;;;;;;;;;;12.00;99.90;;;;;;8387799;28;20023;-69
2024/04/03 20:15:26;;;;;;;;;;;11.90;99.90;;;;;;8371399;28;20392;-70
2024/04/03 20:19:27;;;;;;;;;;;11.90;99.90;;;;;;8385260;28;20397;-70
2024/04/03 20:23:29;;;;;;;;;;;11.90;99.90;;;;;;8372269;28;20014;-70
2024/04/03 20:27:30;;;;;;;;;;;11.90;99.90;;;;;;8369402;28;19924;-69
2024/04/03 20:31:33;;;;;;;;;;;11.90;99.90;;;;;;8371917;28;19920;-69
2024/04/03 20:35:39;;;;;;;;;;;11.80;99.90;;;;;;8353872;28;19920;-69
2024/04/03 20:39:40;;;;;;;;;;;11.80;99.90;;;;;;8355923;28;19943;-69
2024/04/03 20:43:41;;;;;;;;;;;11.80;99.90;;;;;;8365987;28;19928;-69
2024/04/03 20:47:42;;;;;;;;;;;11.80;99.90;;;;;;8370564;28;20023;-70
2024/04/03 20:51:43;;;;;;;;;;;11.80;99.90;;;;;;8370235;28;19928;-69
2024/04/03 20:55:44;;;;;;;;;;;11.80;99.90;;;;;;8369908;28;19969;-69
2024/04/03 20:59:45;;;;;;;;;;;11.70;99.90;;;;;;8352684;28;19925;-69
2024/04/03 21:03:46;;;;;;;;;;;11.70;99.90;;;;;;8395395;28;19924;-69
2024/04/03 21:07:49;;;;;;;;;;;11.70;99.90;;;;;;8397142;28;20299;-69
2024/04/03 21:11:50;;;;;;;;;;;11.60;99.90;;;;;;8407224;28;20053;-69
2024/04/03 21:15:51;;;;;;;;;;;11.70;99.90;;;;;;8407144;28;19923;-69
2024/04/03 21:19:53;;;;;;;;;;;11.60;99.90;;;;;;8390671;28;19943;-69
2024/04/03 21:23:58;;;;;;;;;;;11.60;99.90;;;;;;8385996;28;19924;-69
2024/04/03 21:27:59;;;;;;;;;;;11.60;99.90;;;;;;8405017;28;20014;-69
2024/04/03 21:32:00;;;;;;;;;;;11.60;99.90;;;;;;8407512;28;20010;-69
2024/04/03 21:40:39;;;;;;;;;;;11.50;99.90;;;;;;8382712;28;19919;-70
2024/04/03 21:44:39;;;;;;;;;;;11.60;99.90;;;;;;8388269;28;21912;-69
2024/04/03 21:48:40;;;;;;;;;;;11.50;99.90;;;;;;8403634;28;20343;-71
2024/04/03 21:52:41;;;;;;;;;;;11.50;99.90;;;;;;8401923;28;19924;-70
2024/04/03 21:56:42;;;;;;;;;;;11.50;99.90;;;;;;8399791;28;19926;-70
2024/04/03 22:00:43;;;;;;;;;;;11.40;99.90;;;;;;8376964;28;20416;-70
2024/04/03 22:04:44;;;;;;;;;;;11.40;99.90;;;;;;8396207;28;19943;-71
2024/04/03 22:08:45;;;;;;;;;;;11.40;99.90;;;;;;8426394;28;20015;-70
2024/04/03 22:12:46;;;;;;;;;;;11.40;99.90;;;;;;8394221;28;20056;-70
2024/04/03 22:16:47;;;;;;;;;;;11.40;99.90;;;;;;8407931;28;20065;-71
2024/04/03 22:20:48;;;;;;;;;;;11.30;99.90;;;;;;8411963;28;20057;-70
2024/04/03 22:24:49;;;;;;;;;;;11.30;99.90;;;;;;8397249;28;20268;-70
2024/04/03 22:28:53;;;;;;;;;;;11.30;99.90;;;;;;8408803;28;19920;-70
2024/04/03 22:32:54;;;;;;;;;;;11.30;99.90;;;;;;8411338;28;20065;-70
2024/04/03 22:36:55;;;;;;;;;;;11.20;99.90;;;;;;8397106;28;19923;-70
2024/04/03 22:40:56;;;;;;;;;;;11.20;99.90;;;;;;8404723;28;19963;-70
2024/04/03 22:44:56;;;;;;;;;;;11.20;99.90;;;;;;8408394;28;19920;-70
2024/04/03 22:48:59;;;;;;;;;;;11.20;99.90;;;;;;8390448;28;19973;-70
2024/04/03 22:53:00;;;;;;;;;;;11.10;99.90;;;;;;8389353;28;20011;-70
2024/04/03 22:57:00;;;;;;;;;;;11.10;99.90;;;;;;8373927;28;19920;-69
2024/04/03 23:01:01;;;;;;;;;;;11.00;99.90;;;;;;8414703;28;20358;-70
2024/04/03 23:05:04;;;;;;;;;;;10.90;99.90;;;;;;8374897;28;19920;-70
2024/04/03 23:09:05;;;;;;;;;;;10.80;99.90;;;;;;8402590;28;19966;-70
2024/04/03 23:13:06;;;;;;;;;;;10.70;99.90;;;;;;8386145;28;19928;-69
2024/04/03 23:17:07;;;;;;;;;;;10.60;99.90;;;;;;8389628;28;19928;-70
2024/04/03 23:21:08;;;;;;;;;;;10.60;99.90;;;;;;8396296;28;19927;-70
2024/04/03 23:25:08;;;;;;;;;;;10.60;99.90;;;;;;8368880;28;20578;-69
2024/04/03 23:29:09;;;;;;;;;;;10.60;99.90;;;;;;8393517;28;20371;-69
2024/04/03 23:33:10;;;;;;;;;;;10.50;99.90;;;;;;8415821;28;19927;-70
2024/04/03 23:37:11;;;;;;;;;;;10.40;99.90;;;;;;8405484;28;21974;-70
2024/04/03 23:41:12;;;;;;;;;;;10.40;99.90;;;;;;8398953;28;19995;-69
2024/04/03 23:45:13;;;;;;;;;;;10.30;99.90;;;;;;8383994;28;19919;-70
2024/04/03 23:49:14;;;;;;;;;;;10.20;99.90;;;;;;8412522;28;19934;-69
2024/04/03 23:53:14;;;;;;;;;;;10.10;99.90;;;;;;8393350;28;19972;-69